sensor_id;sensor_type;location;lat;lon;timestamp;P1;durP1;ratioP1;P2;durP2;ratioP2
46757;SDS011;32509;47.750;-3.396;2024-03-02T00:00:01;42.78;;;39.42;;
46757;SDS011;32509;47.750;-3.396;2024-03-02T00:02:39;43.55;;;40.05;;
46757;SDS011;32509;47.750;-3.396;2024-03-02T00:05:10;40.38;;;37.00;;
46757;SDS011;32509;47.750;-3.396;2024-03-02T00:07:37;40.47;;;37.17;;
46757;SDS011;32509;47.750;-3.396;2024-03-02T00:10:07;40.10;;;36.92;;
46757;SDS011;32509;47.750;-3.396;2024-03-02T00:12:38;48.70;;;41.30;;
46757;SDS011;32509;47.750;-3.396;2024-03-02T00:15:05;48.80;;;37.55;;
46757;SDS011;32509;47.750;-3.396;2024-03-02T00:17:52;42.30;;;38.75;;
46757;SDS011;32509;47.750;-3.396;2024-03-02T00:20:18;43.92;;;39.78;;
46757;SDS011;32509;47.750;-3.396;2024-03-02T00:22:47;44.13;;;40.13;;
46757;SDS011;32509;47.750;-3.396;2024-03-02T00:25:14;38.53;;;35.53;;
46757;SDS011;32509;47.750;-3.396;2024-03-02T00:27:39;38.72;;;35.40;;
46757;SDS011;32509;47.750;-3.396;2024-03-02T00:30:07;40.13;;;36.55;;
46757;SDS011;32509;47.750;-3.396;2024-03-02T00:33:10;38.50;;;35.35;;
46757;SDS011;32509;47.750;-3.396;2024-03-02T00:35:36;36.80;;;33.78;;
46757;SDS011;32509;47.750;-3.396;2024-03-02T00:38:05;38.90;;;35.70;;
46757;SDS011;32509;47.750;-3.396;2024-03-02T00:40:31;40.25;;;37.15;;
46757;SDS011;32509;47.750;-3.396;2024-03-02T00:42:58;38.30;;;35.30;;
46757;SDS011;32509;47.750;-3.396;2024-03-02T00:45:24;41.00;;;36.80;;
46757;SDS011;32509;47.750;-3.396;2024-03-02T00:47:51;38.00;;;34.72;;
46757;SDS011;32509;47.750;-3.396;2024-03-02T00:50:18;38.58;;;35.58;;
46757;SDS011;32509;47.750;-3.396;2024-03-02T00:52:44;37.85;;;34.65;;
46757;SDS011;32509;47.750;-3.396;2024-03-02T00:55:10;37.28;;;33.92;;
46757;SDS011;32509;47.750;-3.396;2024-03-02T00:57:37;40.30;;;36.75;;
46757;SDS011;32509;47.750;-3.396;2024-03-02T01:00:03;39.60;;;36.17;;
46757;SDS011;32509;47.750;-3.396;2024-03-02T01:02:33;38.22;;;35.25;;
46757;SDS011;32509;47.750;-3.396;2024-03-02T01:04:59;39.60;;;35.45;;
46757;SDS011;32509;47.750;-3.396;2024-03-02T01:07:25;42.47;;;38.25;;
46757;SDS011;32509;47.750;-3.396;2024-03-02T01:09:50;42.85;;;39.17;;
46757;SDS011;32509;47.750;-3.396;2024-03-02T01:12:16;38.38;;;35.75;;
46757;SDS011;32509;47.750;-3.396;2024-03-02T01:14:42;44.72;;;40.80;;
46757;SDS011;32509;47.750;-3.396;2024-03-02T01:17:07;40.70;;;36.83;;
46757;SDS011;32509;47.750;-3.396;2024-03-02T01:19:33;38.40;;;35.13;;
46757;SDS011;32509;47.750;-3.396;2024-03-02T01:21:59;38.58;;;35.63;;
46757;SDS011;32509;47.750;-3.396;2024-03-02T01:24:24;39.03;;;36.10;;
46757;SDS011;32509;47.750;-3.396;2024-03-02T01:26:50;39.05;;;35.65;;
46757;SDS011;32509;47.750;-3.396;2024-03-02T01:29:16;37.95;;;34.88;;
46757;SDS011;32509;47.750;-3.396;2024-03-02T01:31:42;38.63;;;35.00;;
46757;SDS011;32509;47.750;-3.396;2024-03-02T01:34:08;45.17;;;41.25;;
46757;SDS011;32509;47.750;-3.396;2024-03-02T01:36:34;43.40;;;40.03;;
46757;SDS011;32509;47.750;-3.396;2024-03-02T01:38:59;42.03;;;37.58;;
46757;SDS011;32509;47.750;-3.396;2024-03-02T01:41:26;36.88;;;34.17;;
46757;SDS011;32509;47.750;-3.396;2024-03-02T01:43:52;35.78;;;32.65;;
46757;SDS011;32509;47.750;-3.396;2024-03-02T01:46:18;38.90;;;34.22;;
46757;SDS011;32509;47.750;-3.396;2024-03-02T01:48:44;35.60;;;32.42;;
46757;SDS011;32509;47.750;-3.396;2024-03-02T01:51:10;34.63;;;31.50;;
46757;SDS011;32509;47.750;-3.396;2024-03-02T01:53:35;35.53;;;32.28;;
46757;SDS011;32509;47.750;-3.396;2024-03-02T01:56:02;36.22;;;32.67;;
46757;SDS011;32509;47.750;-3.396;2024-03-02T01:58:28;33.50;;;30.25;;
46757;SDS011;32509;47.750;-3.396;2024-03-02T02:00:53;36.05;;;32.47;;
46757;SDS011;32509;47.750;-3.396;2024-03-02T02:03:19;35.90;;;32.30;;
46757;SDS011;32509;47.750;-3.396;2024-03-02T02:05:45;36.85;;;33.03;;
46757;SDS011;32509;47.750;-3.396;2024-03-02T02:08:13;32.80;;;29.88;;
46757;SDS011;32509;47.750;-3.396;2024-03-02T02:10:38;33.92;;;30.75;;
46757;SDS011;32509;47.750;-3.396;2024-03-02T02:13:04;33.35;;;30.38;;
46757;SDS011;32509;47.750;-3.396;2024-03-02T02:15:30;35.92;;;32.50;;
46757;SDS011;32509;47.750;-3.396;2024-03-02T02:17:57;33.60;;;30.52;;
46757;SDS011;32509;47.750;-3.396;2024-03-02T02:20:23;31.10;;;28.85;;
46757;SDS011;32509;47.750;-3.396;2024-03-02T02:22:56;35.28;;;31.92;;
46757;SDS011;32509;47.750;-3.396;2024-03-02T02:25:27;32.63;;;29.80;;
46757;SDS011;32509;47.750;-3.396;2024-03-02T02:27:53;34.08;;;31.33;;
46757;SDS011;32509;47.750;-3.396;2024-03-02T02:30:24;33.47;;;30.48;;
46757;SDS011;32509;47.750;-3.396;2024-03-02T02:32:51;33.50;;;30.73;;
46757;SDS011;32509;47.750;-3.396;2024-03-02T02:35:17;33.90;;;30.88;;
46757;SDS011;32509;47.750;-3.396;2024-03-02T02:37:44;33.22;;;30.27;;
46757;SDS011;32509;47.750;-3.396;2024-03-02T02:40:11;36.58;;;33.30;;
46757;SDS011;32509;47.750;-3.396;2024-03-02T02:42:38;34.47;;;31.95;;
46757;SDS011;32509;47.750;-3.396;2024-03-02T02:45:04;34.25;;;31.52;;
46757;SDS011;32509;47.750;-3.396;2024-03-02T02:47:31;32.65;;;30.20;;
46757;SDS011;32509;47.750;-3.396;2024-03-02T02:50:00;34.65;;;32.05;;
46757;SDS011;32509;47.750;-3.396;2024-03-02T02:52:31;34.08;;;31.33;;
46757;SDS011;32509;47.750;-3.396;2024-03-02T02:54:58;37.03;;;33.90;;
46757;SDS011;32509;47.750;-3.396;2024-03-02T02:57:24;38.08;;;35.38;;
46757;SDS011;32509;47.750;-3.396;2024-03-02T02:59:50;35.08;;;32.45;;
46757;SDS011;32509;47.750;-3.396;2024-03-02T03:02:16;32.83;;;30.25;;
46757;SDS011;32509;47.750;-3.396;2024-03-02T03:04:41;33.25;;;31.00;;
46757;SDS011;32509;47.750;-3.396;2024-03-02T03:07:07;32.20;;;29.70;;
46757;SDS011;32509;47.750;-3.396;2024-03-02T03:09:33;35.78;;;32.88;;
46757;SDS011;32509;47.750;-3.396;2024-03-02T03:12:02;34.90;;;31.88;;
46757;SDS011;32509;47.750;-3.396;2024-03-02T03:14:27;35.08;;;32.42;;
46757;SDS011;32509;47.750;-3.396;2024-03-02T03:16:53;31.83;;;29.02;;
46757;SDS011;32509;47.750;-3.396;2024-03-02T03:19:19;32.67;;;30.38;;
46757;SDS011;32509;47.750;-3.396;2024-03-02T03:21:45;32.58;;;30.08;;
46757;SDS011;32509;47.750;-3.396;2024-03-02T03:24:10;33.22;;;30.88;;
46757;SDS011;32509;47.750;-3.396;2024-03-02T03:26:36;33.08;;;30.67;;
46757;SDS011;32509;47.750;-3.396;2024-03-02T03:29:02;34.22;;;31.52;;
46757;SDS011;32509;47.750;-3.396;2024-03-02T03:31:28;32.47;;;30.13;;
46757;SDS011;32509;47.750;-3.396;2024-03-02T03:33:54;32.00;;;29.67;;
46757;SDS011;32509;47.750;-3.396;2024-03-02T03:36:20;33.75;;;31.70;;
46757;SDS011;32509;47.750;-3.396;2024-03-02T03:38:46;34.33;;;32.13;;
46757;SDS011;32509;47.750;-3.396;2024-03-02T03:41:11;32.88;;;30.63;;
46757;SDS011;32509;47.750;-3.396;2024-03-02T03:43:37;33.25;;;30.73;;
46757;SDS011;32509;47.750;-3.396;2024-03-02T03:46:03;32.78;;;30.35;;
46757;SDS011;32509;47.750;-3.396;2024-03-02T03:48:28;32.72;;;30.55;;
46757;SDS011;32509;47.750;-3.396;2024-03-02T03:50:56;34.47;;;32.17;;
46757;SDS011;32509;47.750;-3.396;2024-03-02T03:53:22;34.28;;;31.25;;
46757;SDS011;32509;47.750;-3.396;2024-03-02T03:55:48;34.00;;;31.52;;
46757;SDS011;32509;47.750;-3.396;2024-03-02T03:58:16;35.67;;;33.42;;
46757;SDS011;32509;47.750;-3.396;2024-03-02T04:00:43;32.97;;;30.60;;
46757;SDS011;32509;47.750;-3.396;2024-03-02T04:03:09;31.48;;;29.58;;
46757;SDS011;32509;47.750;-3.396;2024-03-02T04:05:35;32.03;;;30.02;;
46757;SDS011;32509;47.750;-3.396;2024-03-02T04:08:01;33.53;;;31.15;;
46757;SDS011;32509;47.750;-3.396;2024-03-02T04:10:26;33.17;;;30.90;;
46757;SDS011;32509;47.750;-3.396;2024-03-02T04:12:52;33.50;;;31.33;;
46757;SDS011;32509;47.750;-3.396;2024-03-02T04:15:18;34.97;;;32.47;;
46757;SDS011;32509;47.750;-3.396;2024-03-02T04:17:44;33.80;;;31.20;;
46757;SDS011;32509;47.750;-3.396;2024-03-02T04:20:09;33.00;;;30.67;;
46757;SDS011;32509;47.750;-3.396;2024-03-02T04:22:37;32.85;;;30.60;;
46757;SDS011;32509;47.750;-3.396;2024-03-02T04:25:03;35.38;;;32.85;;
46757;SDS011;32509;47.750;-3.396;2024-03-02T04:27:32;34.78;;;32.25;;
46757;SDS011;32509;47.750;-3.396;2024-03-02T04:30:01;34.00;;;31.73;;
46757;SDS011;32509;47.750;-3.396;2024-03-02T04:32:26;34.63;;;32.22;;
46757;SDS011;32509;47.750;-3.396;2024-03-02T04:34:52;33.45;;;31.40;;
46757;SDS011;32509;47.750;-3.396;2024-03-02T04:37:19;36.15;;;33.03;;
46757;SDS011;32509;47.750;-3.396;2024-03-02T04:39:44;33.22;;;30.98;;
46757;SDS011;32509;47.750;-3.396;2024-03-02T04:42:10;33.38;;;31.00;;
46757;SDS011;32509;47.750;-3.396;2024-03-02T04:44:36;34.17;;;31.88;;
46757;SDS011;32509;47.750;-3.396;2024-03-02T04:47:03;36.60;;;33.80;;
46757;SDS011;32509;47.750;-3.396;2024-03-02T04:49:29;35.17;;;32.65;;
46757;SDS011;32509;47.750;-3.396;2024-03-02T04:51:55;37.05;;;34.40;;
46757;SDS011;32509;47.750;-3.396;2024-03-02T04:54:22;37.78;;;35.03;;
46757;SDS011;32509;47.750;-3.396;2024-03-02T04:56:48;36.78;;;33.95;;
46757;SDS011;32509;47.750;-3.396;2024-03-02T04:59:16;35.58;;;33.38;;
46757;SDS011;32509;47.750;-3.396;2024-03-02T05:01:43;36.28;;;33.80;;
46757;SDS011;32509;47.750;-3.396;2024-03-02T05:04:09;34.20;;;31.77;;
46757;SDS011;32509;47.750;-3.396;2024-03-02T05:06:38;33.50;;;30.83;;
46757;SDS011;32509;47.750;-3.396;2024-03-02T05:09:05;33.45;;;31.02;;
46757;SDS011;32509;47.750;-3.396;2024-03-02T05:11:31;34.95;;;32.08;;
46757;SDS011;32509;47.750;-3.396;2024-03-02T05:14:17;36.58;;;33.80;;
46757;SDS011;32509;47.750;-3.396;2024-03-02T05:16:43;35.65;;;32.13;;
46757;SDS011;32509;47.750;-3.396;2024-03-02T05:19:09;32.50;;;30.05;;
46757;SDS011;32509;47.750;-3.396;2024-03-02T05:21:35;32.42;;;30.42;;
46757;SDS011;32509;47.750;-3.396;2024-03-02T05:24:00;34.70;;;32.17;;
46757;SDS011;32509;47.750;-3.396;2024-03-02T05:26:26;38.08;;;35.08;;
46757;SDS011;32509;47.750;-3.396;2024-03-02T05:28:52;34.55;;;31.83;;
46757;SDS011;32509;47.750;-3.396;2024-03-02T05:31:18;35.15;;;32.45;;
46757;SDS011;32509;47.750;-3.396;2024-03-02T05:33:43;35.05;;;32.35;;
46757;SDS011;32509;47.750;-3.396;2024-03-02T05:36:09;33.42;;;31.13;;
46757;SDS011;32509;47.750;-3.396;2024-03-02T05:38:35;34.75;;;31.98;;
46757;SDS011;32509;47.750;-3.396;2024-03-02T05:41:01;32.03;;;29.55;;
46757;SDS011;32509;47.750;-3.396;2024-03-02T05:43:27;32.95;;;30.70;;
46757;SDS011;32509;47.750;-3.396;2024-03-02T05:45:53;32.08;;;29.63;;
46757;SDS011;32509;47.750;-3.396;2024-03-02T05:48:19;33.75;;;31.27;;
46757;SDS011;32509;47.750;-3.396;2024-03-02T05:50:45;32.83;;;30.88;;
46757;SDS011;32509;47.750;-3.396;2024-03-02T05:53:10;33.88;;;31.70;;
46757;SDS011;32509;47.750;-3.396;2024-03-02T05:55:36;33.20;;;31.10;;
46757;SDS011;32509;47.750;-3.396;2024-03-02T05:58:02;35.05;;;32.45;;
46757;SDS011;32509;47.750;-3.396;2024-03-02T06:00:47;34.15;;;31.60;;
46757;SDS011;32509;47.750;-3.396;2024-03-02T06:03:13;34.88;;;32.70;;
46757;SDS011;32509;47.750;-3.396;2024-03-02T06:05:39;35.05;;;32.85;;
46757;SDS011;32509;47.750;-3.396;2024-03-02T06:08:06;36.35;;;33.97;;
46757;SDS011;32509;47.750;-3.396;2024-03-02T06:10:32;34.75;;;32.63;;
46757;SDS011;32509;47.750;-3.396;2024-03-02T06:12:58;35.15;;;32.65;;
46757;SDS011;32509;47.750;-3.396;2024-03-02T06:15:24;36.83;;;34.53;;
46757;SDS011;32509;47.750;-3.396;2024-03-02T06:17:50;36.25;;;33.95;;
46757;SDS011;32509;47.750;-3.396;2024-03-02T06:20:16;37.50;;;34.60;;
46757;SDS011;32509;47.750;-3.396;2024-03-02T06:22:41;35.40;;;32.83;;
46757;SDS011;32509;47.750;-3.396;2024-03-02T06:25:07;32.85;;;30.30;;
46757;SDS011;32509;47.750;-3.396;2024-03-02T06:27:33;34.15;;;31.88;;
46757;SDS011;32509;47.750;-3.396;2024-03-02T06:29:59;34.15;;;31.95;;
46757;SDS011;32509;47.750;-3.396;2024-03-02T06:32:24;34.22;;;32.08;;
46757;SDS011;32509;47.750;-3.396;2024-03-02T06:34:50;33.22;;;30.90;;
46757;SDS011;32509;47.750;-3.396;2024-03-02T06:37:16;35.38;;;32.72;;
46757;SDS011;32509;47.750;-3.396;2024-03-02T06:39:41;34.80;;;32.30;;
46757;SDS011;32509;47.750;-3.396;2024-03-02T06:42:08;33.85;;;31.77;;
46757;SDS011;32509;47.750;-3.396;2024-03-02T06:44:34;35.00;;;32.63;;
46757;SDS011;32509;47.750;-3.396;2024-03-02T06:46:59;34.25;;;32.22;;
46757;SDS011;32509;47.750;-3.396;2024-03-02T06:49:25;35.42;;;33.08;;
46757;SDS011;32509;47.750;-3.396;2024-03-02T06:51:51;36.60;;;34.17;;
46757;SDS011;32509;47.750;-3.396;2024-03-02T06:54:16;37.30;;;34.72;;
46757;SDS011;32509;47.750;-3.396;2024-03-02T06:56:42;37.17;;;34.65;;
46757;SDS011;32509;47.750;-3.396;2024-03-02T06:59:08;37.85;;;35.55;;
46757;SDS011;32509;47.750;-3.396;2024-03-02T07:01:34;38.90;;;36.60;;
46757;SDS011;32509;47.750;-3.396;2024-03-02T07:03:59;42.83;;;39.60;;
46757;SDS011;32509;47.750;-3.396;2024-03-02T07:06:25;38.50;;;36.05;;
46757;SDS011;32509;47.750;-3.396;2024-03-02T07:08:51;38.05;;;35.58;;
46757;SDS011;32509;47.750;-3.396;2024-03-02T07:11:16;41.28;;;38.58;;
46757;SDS011;32509;47.750;-3.396;2024-03-02T07:13:42;40.97;;;38.05;;
46757;SDS011;32509;47.750;-3.396;2024-03-02T07:16:08;39.40;;;36.63;;
46757;SDS011;32509;47.750;-3.396;2024-03-02T07:18:58;38.60;;;36.10;;
46757;SDS011;32509;47.750;-3.396;2024-03-02T07:21:24;40.05;;;37.40;;
46757;SDS011;32509;47.750;-3.396;2024-03-02T07:23:50;38.00;;;35.78;;
46757;SDS011;32509;47.750;-3.396;2024-03-02T07:26:16;38.92;;;36.42;;
46757;SDS011;32509;47.750;-3.396;2024-03-02T07:28:43;39.00;;;36.53;;
46757;SDS011;32509;47.750;-3.396;2024-03-02T07:31:10;40.50;;;37.72;;
46757;SDS011;32509;47.750;-3.396;2024-03-02T07:33:36;36.88;;;34.42;;
46757;SDS011;32509;47.750;-3.396;2024-03-02T07:36:02;38.40;;;35.95;;
46757;SDS011;32509;47.750;-3.396;2024-03-02T07:38:28;37.85;;;35.53;;
46757;SDS011;32509;47.750;-3.396;2024-03-02T07:40:54;38.83;;;36.38;;
46757;SDS011;32509;47.750;-3.396;2024-03-02T07:43:21;35.75;;;33.55;;
46757;SDS011;32509;47.750;-3.396;2024-03-02T07:45:47;37.00;;;34.75;;
46757;SDS011;32509;47.750;-3.396;2024-03-02T07:48:13;35.78;;;32.80;;
46757;SDS011;32509;47.750;-3.396;2024-03-02T07:50:40;37.72;;;35.30;;
46757;SDS011;32509;47.750;-3.396;2024-03-02T07:53:06;37.50;;;35.13;;
46757;SDS011;32509;47.750;-3.396;2024-03-02T07:55:35;34.30;;;32.20;;
46757;SDS011;32509;47.750;-3.396;2024-03-02T07:58:01;35.30;;;32.58;;
46757;SDS011;32509;47.750;-3.396;2024-03-02T08:00:27;34.63;;;32.28;;
46757;SDS011;32509;47.750;-3.396;2024-03-02T08:02:53;34.28;;;31.60;;
46757;SDS011;32509;47.750;-3.396;2024-03-02T08:05:20;33.78;;;31.42;;
46757;SDS011;32509;47.750;-3.396;2024-03-02T08:07:46;34.95;;;32.38;;
46757;SDS011;32509;47.750;-3.396;2024-03-02T08:10:12;35.33;;;32.72;;
46757;SDS011;32509;47.750;-3.396;2024-03-02T08:12:39;36.25;;;33.13;;
46757;SDS011;32509;47.750;-3.396;2024-03-02T08:15:05;36.50;;;33.55;;
46757;SDS011;32509;47.750;-3.396;2024-03-02T08:17:32;34.95;;;32.30;;
46757;SDS011;32509;47.750;-3.396;2024-03-02T08:19:58;33.58;;;31.00;;
46757;SDS011;32509;47.750;-3.396;2024-03-02T08:22:23;34.28;;;31.85;;
46757;SDS011;32509;47.750;-3.396;2024-03-02T08:24:52;35.35;;;32.08;;
46757;SDS011;32509;47.750;-3.396;2024-03-02T08:27:18;34.90;;;32.38;;
46757;SDS011;32509;47.750;-3.396;2024-03-02T08:29:44;36.05;;;32.97;;
46757;SDS011;32509;47.750;-3.396;2024-03-02T08:32:10;34.85;;;31.92;;
46757;SDS011;32509;47.750;-3.396;2024-03-02T08:34:36;35.58;;;33.00;;
46757;SDS011;32509;47.750;-3.396;2024-03-02T08:37:01;35.50;;;32.42;;
46757;SDS011;32509;47.750;-3.396;2024-03-02T08:39:28;36.13;;;32.80;;
46757;SDS011;32509;47.750;-3.396;2024-03-02T08:41:53;36.28;;;33.40;;
46757;SDS011;32509;47.750;-3.396;2024-03-02T08:44:20;37.90;;;35.03;;
46757;SDS011;32509;47.750;-3.396;2024-03-02T08:46:46;35.30;;;32.53;;
46757;SDS011;32509;47.750;-3.396;2024-03-02T08:49:12;35.28;;;32.72;;
46757;SDS011;32509;47.750;-3.396;2024-03-02T08:51:38;33.95;;;31.65;;
46757;SDS011;32509;47.750;-3.396;2024-03-02T08:54:04;34.13;;;31.58;;
46757;SDS011;32509;47.750;-3.396;2024-03-02T08:56:30;34.83;;;31.88;;
46757;SDS011;32509;47.750;-3.396;2024-03-02T08:58:56;33.78;;;31.30;;
46757;SDS011;32509;47.750;-3.396;2024-03-02T09:01:22;37.33;;;34.40;;
46757;SDS011;32509;47.750;-3.396;2024-03-02T09:03:48;33.78;;;31.17;;
46757;SDS011;32509;47.750;-3.396;2024-03-02T09:06:16;35.72;;;32.80;;
46757;SDS011;32509;47.750;-3.396;2024-03-02T09:08:42;37.55;;;34.55;;
46757;SDS011;32509;47.750;-3.396;2024-03-02T09:11:09;37.78;;;35.10;;
46757;SDS011;32509;47.750;-3.396;2024-03-02T09:13:38;40.08;;;36.88;;
46757;SDS011;32509;47.750;-3.396;2024-03-02T09:16:04;42.60;;;39.58;;
46757;SDS011;32509;47.750;-3.396;2024-03-02T09:18:30;40.08;;;37.33;;
46757;SDS011;32509;47.750;-3.396;2024-03-02T09:20:56;40.63;;;37.42;;
46757;SDS011;32509;47.750;-3.396;2024-03-02T09:23:22;37.58;;;34.90;;
46757;SDS011;32509;47.750;-3.396;2024-03-02T09:25:47;38.38;;;35.10;;
46757;SDS011;32509;47.750;-3.396;2024-03-02T09:28:15;35.90;;;33.20;;
46757;SDS011;32509;47.750;-3.396;2024-03-02T09:30:41;38.80;;;36.28;;
46757;SDS011;32509;47.750;-3.396;2024-03-02T09:33:06;37.30;;;34.70;;
46757;SDS011;32509;47.750;-3.396;2024-03-02T09:35:32;36.72;;;34.30;;
46757;SDS011;32509;47.750;-3.396;2024-03-02T09:37:58;38.90;;;35.97;;
46757;SDS011;32509;47.750;-3.396;2024-03-02T09:40:24;38.45;;;35.60;;
46757;SDS011;32509;47.750;-3.396;2024-03-02T09:42:50;38.85;;;36.20;;
46757;SDS011;32509;47.750;-3.396;2024-03-02T09:45:22;39.78;;;36.78;;
46757;SDS011;32509;47.750;-3.396;2024-03-02T09:47:49;36.05;;;33.15;;
46757;SDS011;32509;47.750;-3.396;2024-03-02T09:50:15;37.72;;;34.80;;
46757;SDS011;32509;47.750;-3.396;2024-03-02T09:52:42;42.28;;;39.42;;
46757;SDS011;32509;47.750;-3.396;2024-03-02T09:55:08;41.47;;;38.55;;
46757;SDS011;32509;47.750;-3.396;2024-03-02T09:57:34;42.13;;;39.42;;
46757;SDS011;32509;47.750;-3.396;2024-03-02T10:00:00;40.03;;;37.33;;
46757;SDS011;32509;47.750;-3.396;2024-03-02T10:02:26;36.95;;;34.47;;
46757;SDS011;32509;47.750;-3.396;2024-03-02T10:04:52;37.45;;;34.65;;
46757;SDS011;32509;47.750;-3.396;2024-03-02T10:07:18;40.40;;;37.72;;
46757;SDS011;32509;47.750;-3.396;2024-03-02T10:09:45;43.30;;;40.67;;
46757;SDS011;32509;47.750;-3.396;2024-03-02T10:12:12;39.15;;;36.42;;
46757;SDS011;32509;47.750;-3.396;2024-03-02T10:14:39;41.75;;;38.67;;
46757;SDS011;32509;47.750;-3.396;2024-03-02T10:17:06;39.40;;;36.90;;
46757;SDS011;32509;47.750;-3.396;2024-03-02T10:19:33;39.75;;;36.83;;
46757;SDS011;32509;47.750;-3.396;2024-03-02T10:22:00;40.15;;;37.85;;
46757;SDS011;32509;47.750;-3.396;2024-03-02T10:24:28;40.88;;;37.97;;
46757;SDS011;32509;47.750;-3.396;2024-03-02T10:27:10;39.70;;;37.03;;
46757;SDS011;32509;47.750;-3.396;2024-03-02T10:29:45;43.55;;;40.80;;
46757;SDS011;32509;47.750;-3.396;2024-03-02T10:32:11;43.40;;;40.60;;
46757;SDS011;32509;47.750;-3.396;2024-03-02T10:34:39;41.13;;;38.65;;
46757;SDS011;32509;47.750;-3.396;2024-03-02T10:37:05;40.80;;;38.28;;
46757;SDS011;32509;47.750;-3.396;2024-03-02T10:39:34;42.58;;;39.95;;
46757;SDS011;32509;47.750;-3.396;2024-03-02T10:42:05;47.15;;;44.20;;
46757;SDS011;32509;47.750;-3.396;2024-03-02T10:44:32;48.25;;;45.22;;
46757;SDS011;32509;47.750;-3.396;2024-03-02T10:47:01;51.15;;;47.90;;
46757;SDS011;32509;47.750;-3.396;2024-03-02T10:49:29;48.00;;;45.20;;
46757;SDS011;32509;47.750;-3.396;2024-03-02T10:51:57;47.88;;;45.17;;
46757;SDS011;32509;47.750;-3.396;2024-03-02T10:54:23;49.10;;;46.28;;
46757;SDS011;32509;47.750;-3.396;2024-03-02T10:56:52;45.25;;;42.45;;
46757;SDS011;32509;47.750;-3.396;2024-03-02T10:59:35;43.13;;;40.72;;
46757;SDS011;32509;47.750;-3.396;2024-03-02T11:02:02;41.75;;;39.22;;
46757;SDS011;32509;47.750;-3.396;2024-03-02T11:04:29;46.85;;;44.15;;
46757;SDS011;32509;47.750;-3.396;2024-03-02T11:06:58;41.28;;;38.75;;
46757;SDS011;32509;47.750;-3.396;2024-03-02T11:09:27;46.08;;;43.30;;
46757;SDS011;32509;47.750;-3.396;2024-03-02T11:12:02;41.65;;;39.05;;
46757;SDS011;32509;47.750;-3.396;2024-03-02T11:14:37;47.88;;;44.78;;
46757;SDS011;32509;47.750;-3.396;2024-03-02T12:29:21;54.17;;;51.30;;
46757;SDS011;32509;47.750;-3.396;2024-03-02T12:31:49;39.42;;;37.45;;
46757;SDS011;32509;47.750;-3.396;2024-03-02T12:34:18;50.53;;;47.88;;
46757;SDS011;32509;47.750;-3.396;2024-03-02T12:36:45;48.95;;;46.25;;
46757;SDS011;32509;47.750;-3.396;2024-03-02T12:39:14;56.55;;;53.45;;
46757;SDS011;32509;47.750;-3.396;2024-03-02T12:41:44;59.33;;;55.83;;
46757;SDS011;32509;47.750;-3.396;2024-03-02T12:44:15;60.55;;;57.13;;
46757;SDS011;32509;47.750;-3.396;2024-03-02T12:46:42;53.97;;;50.97;;
46757;SDS011;32509;47.750;-3.396;2024-03-02T12:49:08;58.28;;;54.97;;
46757;SDS011;32509;47.750;-3.396;2024-03-02T12:51:36;55.42;;;52.47;;
46757;SDS011;32509;47.750;-3.396;2024-03-02T12:54:02;49.10;;;46.65;;
46757;SDS011;32509;47.750;-3.396;2024-03-02T12:56:28;39.80;;;37.70;;
46757;SDS011;32509;47.750;-3.396;2024-03-02T12:58:55;56.38;;;53.38;;
46757;SDS011;32509;47.750;-3.396;2024-03-02T13:01:21;64.80;;;61.40;;
46757;SDS011;32509;47.750;-3.396;2024-03-02T13:03:50;58.17;;;55.08;;
46757;SDS011;32509;47.750;-3.396;2024-03-02T13:06:22;49.15;;;46.45;;
46757;SDS011;32509;47.750;-3.396;2024-03-02T13:08:49;39.63;;;37.47;;
46757;SDS011;32509;47.750;-3.396;2024-03-02T13:11:15;55.17;;;52.20;;
46757;SDS011;32509;47.750;-3.396;2024-03-02T13:13:41;43.72;;;41.47;;
46757;SDS011;32509;47.750;-3.396;2024-03-02T13:16:08;50.83;;;48.08;;
46757;SDS011;32509;47.750;-3.396;2024-03-02T13:18:41;48.67;;;45.90;;
46757;SDS011;32509;47.750;-3.396;2024-03-02T13:21:07;57.42;;;54.38;;
46757;SDS011;32509;47.750;-3.396;2024-03-02T13:23:33;47.97;;;45.38;;
46757;SDS011;32509;47.750;-3.396;2024-03-02T13:25:59;51.28;;;48.33;;
46757;SDS011;32509;47.750;-3.396;2024-03-02T13:28:25;57.90;;;54.88;;
46757;SDS011;32509;47.750;-3.396;2024-03-02T13:30:51;51.38;;;48.78;;
46757;SDS011;32509;47.750;-3.396;2024-03-02T13:52:40;58.15;;;54.88;;
46757;SDS011;32509;47.750;-3.396;2024-03-02T13:55:06;48.30;;;45.88;;
46757;SDS011;32509;47.750;-3.396;2024-03-02T13:57:32;58.78;;;55.42;;
46757;SDS011;32509;47.750;-3.396;2024-03-02T13:59:58;41.55;;;39.25;;
46757;SDS011;32509;47.750;-3.396;2024-03-02T14:02:23;50.78;;;48.00;;
46757;SDS011;32509;47.750;-3.396;2024-03-02T14:04:49;44.00;;;41.65;;
46757;SDS011;32509;47.750;-3.396;2024-03-02T14:07:15;42.92;;;40.60;;
46757;SDS011;32509;47.750;-3.396;2024-03-02T14:09:41;50.15;;;47.20;;
46757;SDS011;32509;47.750;-3.396;2024-03-02T14:12:07;44.58;;;42.25;;
46757;SDS011;32509;47.750;-3.396;2024-03-02T14:14:34;46.03;;;43.53;;
46757;SDS011;32509;47.750;-3.396;2024-03-02T14:17:00;56.38;;;53.40;;
46757;SDS011;32509;47.750;-3.396;2024-03-02T14:19:28;55.35;;;52.25;;
46757;SDS011;32509;47.750;-3.396;2024-03-02T14:21:54;56.92;;;53.85;;
46757;SDS011;32509;47.750;-3.396;2024-03-02T14:24:21;41.75;;;39.63;;
46757;SDS011;32509;47.750;-3.396;2024-03-02T14:26:50;46.03;;;43.65;;
46757;SDS011;32509;47.750;-3.396;2024-03-02T14:29:17;52.13;;;49.30;;
46757;SDS011;32509;47.750;-3.396;2024-03-02T14:31:43;46.38;;;43.78;;
46757;SDS011;32509;47.750;-3.396;2024-03-02T14:34:12;58.58;;;55.30;;
46757;SDS011;32509;47.750;-3.396;2024-03-02T14:36:37;64.78;;;60.95;;
46757;SDS011;32509;47.750;-3.396;2024-03-02T14:39:03;57.13;;;53.58;;
46757;SDS011;32509;47.750;-3.396;2024-03-02T14:41:29;58.90;;;55.78;;
46757;SDS011;32509;47.750;-3.396;2024-03-02T14:43:55;53.22;;;49.78;;
46757;SDS011;32509;47.750;-3.396;2024-03-02T14:46:20;57.72;;;54.42;;
46757;SDS011;32509;47.750;-3.396;2024-03-02T14:48:46;63.03;;;59.45;;
46757;SDS011;32509;47.750;-3.396;2024-03-02T14:51:12;58.15;;;54.90;;
46757;SDS011;32509;47.750;-3.396;2024-03-02T14:53:38;60.60;;;57.13;;
46757;SDS011;32509;47.750;-3.396;2024-03-02T14:56:05;58.45;;;55.05;;
46757;SDS011;32509;47.750;-3.396;2024-03-02T14:58:31;59.08;;;55.65;;
46757;SDS011;32509;47.750;-3.396;2024-03-02T15:00:56;63.33;;;59.65;;
46757;SDS011;32509;47.750;-3.396;2024-03-02T15:03:22;60.00;;;56.20;;
46757;SDS011;32509;47.750;-3.396;2024-03-02T15:05:48;59.83;;;56.40;;
46757;SDS011;32509;47.750;-3.396;2024-03-02T15:08:16;46.72;;;44.03;;
46757;SDS011;32509;47.750;-3.396;2024-03-02T15:10:42;54.55;;;51.60;;
46757;SDS011;32509;47.750;-3.396;2024-03-02T15:13:08;48.35;;;45.85;;
46757;SDS011;32509;47.750;-3.396;2024-03-02T15:15:35;43.45;;;41.17;;
46757;SDS011;32509;47.750;-3.396;2024-03-02T15:18:01;59.47;;;56.13;;
46757;SDS011;32509;47.750;-3.396;2024-03-02T15:20:26;59.85;;;56.47;;
46757;SDS011;32509;47.750;-3.396;2024-03-02T15:22:52;57.35;;;53.90;;
46757;SDS011;32509;47.750;-3.396;2024-03-02T15:25:18;56.40;;;53.40;;
46757;SDS011;32509;47.750;-3.396;2024-03-02T15:27:43;58.90;;;55.78;;
46757;SDS011;32509;47.750;-3.396;2024-03-02T15:30:09;51.33;;;48.53;;
46757;SDS011;32509;47.750;-3.396;2024-03-02T15:32:35;45.05;;;42.75;;
46757;SDS011;32509;47.750;-3.396;2024-03-02T15:35:03;52.53;;;49.53;;
46757;SDS011;32509;47.750;-3.396;2024-03-02T15:37:30;47.92;;;44.97;;